Time;durP1;ratioP1;P1;durP2;ratioP2;P2;SDS_P1;SDS_P2;PMS_P1;PMS_P2;Temp;Humidity;BMP_temperature;BMP_pressure;BME280_temperature;BME280_humidity;BME280_pressure;Samples;Min_cycle;Max_cycle;Signal;HPM_P1;HPM_P2
2022/03/27 00:01:58;;;;;;;7.68;2.92;;;5.80;99.90;;;;;;5093066;28;20573;-71
2022/03/27 00:04:25;;;;;;;6.70;2.88;;;5.90;99.90;;;;;;5092002;28;20044;-71
2022/03/27 00:06:52;;;;;;;7.47;3.47;;;5.90;99.90;;;;;;5092983;28;20052;-71
2022/03/27 00:09:20;;;;;;;5.53;3.53;;;5.90;99.90;;;;;;5071227;28;20048;-71
2022/03/27 00:11:47;;;;;;;5.60;2.92;;;6.00;99.90;;;;;;5054111;28;20052;-71
2022/03/27 00:14:14;;;;;;;6.85;3.33;;;6.00;99.90;;;;;;5055007;28;20407;-70
2022/03/27 00:16:41;;;;;;;7.10;3.20;;;6.00;99.90;;;;;;5054878;28;20488;-70
2022/03/27 00:19:07;;;;;;;8.13;3.17;;;6.00;99.90;;;;;;5054154;28;20428;-70
2022/03/27 00:21:35;;;;;;;10.85;3.72;;;6.10;99.90;;;;;;5072765;28;20052;-71
2022/03/27 00:24:02;;;;;;;8.40;4.30;;;6.20;99.90;;;;;;5053860;28;20045;-70
2022/03/27 00:26:30;;;;;;;9.18;4.18;;;6.30;99.90;;;;;;5073338;28;20135;-70
2022/03/27 00:28:57;;;;;;;9.30;4.18;;;6.30;99.90;;;;;;5092376;28;20036;-70
2022/03/27 00:31:24;;;;;;;7.70;4.50;;;6.40;99.90;;;;;;5074139;28;20353;-70
2022/03/27 00:33:51;;;;;;;10.20;4.43;;;6.50;99.90;;;;;;5092523;28;20503;-70
2022/03/27 00:36:18;;;;;;;9.85;3.72;;;6.50;99.90;;;;;;5092399;28;20047;-71
2022/03/27 00:38:46;;;;;;;10.68;4.03;;;6.60;99.90;;;;;;5092177;28;20123;-71
2022/03/27 00:41:14;;;;;;;9.32;3.63;;;6.60;99.90;;;;;;5074313;28;20048;-71
2022/03/27 00:43:42;;;;;;;10.73;4.13;;;6.60;99.90;;;;;;5074525;28;20131;-71
2022/03/27 00:46:09;;;;;;;8.23;3.58;;;6.60;99.90;;;;;;5069989;28;20049;-71
2022/03/27 00:48:36;;;;;;;8.20;4.13;;;6.70;99.90;;;;;;5054333;28;20477;-71
2022/03/27 00:51:03;;;;;;;7.18;4.32;;;6.70;99.90;;;;;;5072322;28;20098;-71
2022/03/27 00:53:30;;;;;;;9.45;4.78;;;6.80;99.90;;;;;;5057834;28;20448;-71
2022/03/27 00:55:57;;;;;;;9.35;4.22;;;6.80;99.90;;;;;;5068066;28;20458;-71
2022/03/27 00:58:24;;;;;;;8.93;4.63;;;6.80;99.90;;;;;;5074294;28;20048;-71
2022/03/27 01:00:57;;;;;;;9.57;4.50;;;6.70;99.90;;;;;;5091524;28;20048;-71
2022/03/27 01:03:26;;;;;;;11.90;4.38;;;6.70;99.90;;;;;;5074399;28;20514;-71
2022/03/27 01:05:53;;;;;;;8.00;4.45;;;6.90;99.90;;;;;;5070463;28;20131;-70
2022/03/27 01:11:12;;;;;;;8.48;4.30;;;6.80;99.90;;;;;;5057726;28;20039;-71
2022/03/27 01:13:43;;;;;;;9.70;4.57;;;6.80;99.90;;;;;;5073402;28;20058;-71
2022/03/27 01:16:17;;;;;;;9.75;4.40;;;6.80;99.90;;;;;;5074017;28;20044;-70
2022/03/27 01:18:44;;;;;;;6.55;3.97;;;6.80;99.90;;;;;;5092346;28;20048;-71
2022/03/27 01:21:15;;;;;;;6.53;4.20;;;6.80;99.90;;;;;;5073518;28;20135;-70
2022/03/27 01:23:42;;;;;;;6.55;3.58;;;6.70;99.90;;;;;;5074076;28;20052;-70
2022/03/27 01:26:09;;;;;;;9.57;4.60;;;6.70;99.90;;;;;;5092346;28;20113;-70
2022/03/27 01:28:36;;;;;;;8.52;4.20;;;6.60;99.90;;;;;;5095273;28;20495;-71
2022/03/27 01:31:07;;;;;;;11.02;4.53;;;6.60;99.90;;;;;;5077456;28;20056;-70
2022/03/27 01:33:33;;;;;;;;;;;6.60;99.90;;;;;;5078372;28;20055;-71
2022/03/27 01:36:00;;;;;;;9.77;3.97;;;6.60;99.90;;;;;;5094693;28;19997;-70
2022/03/27 01:38:29;;;;;;;7.93;3.80;;;6.60;99.90;;;;;;5095445;28;20675;-71
2022/03/27 01:40:56;;;;;;;7.93;4.20;;;6.60;99.90;;;;;;5057815;28;20052;-71
2022/03/27 01:43:23;;;;;;;7.95;3.65;;;6.60;99.90;;;;;;5056839;28;20102;-70
2022/03/27 01:45:50;;;;;;;9.15;4.00;;;6.50;99.90;;;;;;5087347;28;20051;-71
2022/03/27 01:48:17;;;;;;;10.38;3.85;;;6.40;99.90;;;;;;5095554;28;20048;-70
2022/03/27 01:50:44;;;;;;;8.77;3.92;;;6.30;99.90;;;;;;5076772;28;20060;-71
2022/03/27 01:53:11;;;;;;;7.97;4.00;;;6.30;99.90;;;;;;5077270;28;20044;-70
2022/03/27 01:55:39;;;;;;;7.97;4.25;;;6.20;99.90;;;;;;5073056;28;20059;-70
2022/03/27 01:58:08;;;;;;;6.32;4.18;;;6.10;99.90;;;;;;5074976;28;20051;-71
2022/03/27 02:00:35;;;;;;;10.07;4.57;;;6.10;99.90;;;;;;5057222;28;20060;-70
2022/03/27 02:03:03;;;;;;;9.63;4.95;;;6.10;99.90;;;;;;5056593;28;20052;-70
2022/03/27 02:05:31;;;;;;;11.27;5.00;;;6.00;99.90;;;;;;5064866;28;20060;-70
2022/03/27 02:07:57;;;;;;;9.52;4.60;;;6.00;99.90;;;;;;5077114;28;20047;-70
2022/03/27 02:10:24;;;;;;;11.43;4.32;;;6.00;99.90;;;;;;5076139;28;20056;-71
2022/03/27 02:12:53;;;;;;;8.90;4.55;;;6.00;99.90;;;;;;5095253;28;20109;-70
2022/03/27 02:15:20;;;;;;;8.23;5.00;;;6.00;99.90;;;;;;5063259;28;20062;-70
2022/03/27 02:17:47;;;;;;;11.60;5.80;;;6.00;99.90;;;;;;5094215;28;20040;-70
2022/03/27 02:20:14;;;;;;;15.23;4.95;;;6.10;99.90;;;;;;5076887;28;20044;-71
2022/03/27 02:22:41;;;;;;;9.57;4.78;;;6.00;99.90;;;;;;5076796;28;20048;-70
2022/03/27 02:25:09;;;;;;;11.23;5.03;;;6.00;99.90;;;;;;5072997;28;20080;-70
2022/03/27 02:27:36;;;;;;;9.57;5.55;;;5.90;99.90;;;;;;5074648;28;20075;-70
2022/03/27 02:30:07;;;;;;;14.57;5.28;;;5.90;99.90;;;;;;5056735;28;20072;-70
2022/03/27 02:32:34;;;;;;;11.15;5.07;;;5.90;99.90;;;;;;5056168;28;20052;-70
2022/03/27 02:35:00;;;;;;;8.38;4.40;;;5.80;99.90;;;;;;5077495;28;20056;-70
2022/03/27 02:37:28;;;;;;;14.30;5.18;;;5.80;99.90;;;;;;5075746;28;20106;-70
2022/03/27 02:39:54;;;;;;;9.50;5.07;;;5.70;99.90;;;;;;5075859;28;20056;-71
2022/03/27 02:42:22;;;;;;;10.07;5.07;;;5.70;99.90;;;;;;5076224;28;20097;-71
2022/03/27 02:44:49;;;;;;;9.85;4.40;;;5.70;99.90;;;;;;5075609;28;20136;-72
2022/03/27 02:47:17;;;;;;;10.75;4.88;;;5.60;99.90;;;;;;5076135;28;20047;-72
2022/03/27 02:49:44;;;;;;;13.48;5.35;;;5.40;99.90;;;;;;5076542;28;20052;-72
2022/03/27 02:52:11;;;;;;;10.77;4.53;;;5.40;99.90;;;;;;5093818;28;20055;-72
2022/03/27 02:54:38;;;;;;;7.03;4.43;;;5.40;99.90;;;;;;5094216;28;20058;-71
2022/03/27 02:57:05;;;;;;;15.57;5.57;;;5.30;99.90;;;;;;5076605;28;20463;-72
2022/03/27 02:59:32;;;;;;;9.55;5.20;;;5.30;99.90;;;;;;5075232;28;20044;-72
2022/03/27 03:02:00;;;;;;;13.98;5.60;;;5.20;99.90;;;;;;5094190;28;20067;-71
2022/03/27 03:04:29;;;;;;;9.45;5.05;;;5.20;99.90;;;;;;5075999;28;20471;-71
2022/03/27 03:06:57;;;;;;;9.25;5.15;;;5.10;99.90;;;;;;5075618;28;20352;-71
2022/03/27 03:09:24;;;;;;;9.20;4.60;;;5.10;99.90;;;;;;5076040;28;20048;-71
2022/03/27 03:11:51;;;;;;;17.15;5.13;;;5.00;99.90;;;;;;5093760;28;20052;-71
2022/03/27 03:14:18;;;;;;;11.40;4.85;;;5.00;99.90;;;;;;5075409;28;20551;-72
2022/03/27 03:16:46;;;;;;;6.57;4.28;;;4.90;99.90;;;;;;5075706;28;20072;-71
2022/03/27 03:19:13;;;;;;;11.05;5.00;;;4.90;99.90;;;;;;5093679;28;20044;-71
2022/03/27 03:21:42;;;;;;;10.75;5.25;;;4.90;99.90;;;;;;5075515;28;20052;-72
2022/03/27 03:24:09;;;;;;;12.40;4.60;;;4.90;99.90;;;;;;5075885;28;20101;-71
2022/03/27 03:26:36;;;;;;;8.57;4.25;;;4.80;99.90;;;;;;5093480;28;20136;-70
2022/03/27 03:29:03;;;;;;;8.13;3.78;;;4.80;99.90;;;;;;5074975;28;20055;-72
2022/03/27 03:31:30;;;;;;;8.00;3.55;;;4.70;99.90;;;;;;5076722;28;20062;-72
2022/03/27 03:33:57;;;;;;;5.85;3.25;;;4.70;99.90;;;;;;5096071;28;20052;-71
2022/03/27 03:36:24;;;;;;;7.28;3.60;;;4.70;99.90;;;;;;5073495;28;20052;-71
2022/03/27 03:38:52;;;;;;;7.47;3.95;;;4.60;99.90;;;;;;5092404;28;20377;-70
2022/03/27 03:41:19;;;;;;;7.40;3.78;;;4.60;99.90;;;;;;5076977;28;20418;-71
2022/03/27 03:43:46;;;;;;;8.15;3.50;;;4.50;99.90;;;;;;5077824;28;20121;-70
2022/03/27 03:46:13;;;;;;;11.18;3.45;;;4.50;99.90;;;;;;5072306;28;20101;-71
2022/03/27 03:48:40;;;;;;;5.45;2.85;;;4.50;99.90;;;;;;5053686;28;20557;-71
2022/03/27 03:51:07;;;;;;;8.75;3.35;;;4.40;99.90;;;;;;5055328;28;20056;-71
2022/03/27 03:53:34;;;;;;;6.47;3.25;;;4.40;99.90;;;;;;5055539;28;20056;-71
2022/03/27 03:56:02;;;;;;;8.43;3.47;;;4.30;99.90;;;;;;5088774;28;20048;-71
2022/03/27 03:58:29;;;;;;;7.65;3.53;;;4.30;99.90;;;;;;5074937;28;20051;-70
2022/03/27 04:00:56;;;;;;;15.32;3.72;;;4.20;99.90;;;;;;5075263;28;20125;-71
2022/03/27 04:03:23;;;;;;;6.07;3.13;;;4.20;99.90;;;;;;5092576;28;20044;-71
2022/03/27 04:05:49;;;;;;;7.53;3.05;;;4.20;99.90;;;;;;5071250;28;20056;-70
2022/03/27 04:08:18;;;;;;;6.10;3.58;;;4.10;99.90;;;;;;5073765;28;20051;-71
2022/03/27 04:10:46;;;;;;;8.55;4.05;;;4.10;99.90;;;;;;5092459;28;20403;-71
2022/03/27 04:13:14;;;;;;;7.53;3.70;;;4.10;99.90;;;;;;5093101;28;20047;-71
2022/03/27 04:15:41;;;;;;;7.88;3.67;;;4.00;99.90;;;;;;5074470;28;20145;-71
2022/03/27 04:18:09;;;;;;;9.10;4.22;;;4.10;99.90;;;;;;5070640;28;20090;-71
2022/03/27 04:20:36;;;;;;;8.70;4.20;;;4.00;99.90;;;;;;5072752;28;20059;-70
2022/03/27 04:23:03;;;;;;;10.40;4.78;;;3.90;99.90;;;;;;5054590;28;20056;-71
2022/03/27 04:25:30;;;;;;;11.68;4.10;;;3.90;99.90;;;;;;5054040;28;20496;-71
2022/03/27 04:27:57;;;;;;;5.57;2.95;;;3.90;99.90;;;;;;5051122;28;20125;-71
2022/03/27 04:30:25;;;;;;;6.80;3.40;;;3.90;99.90;;;;;;5051776;28;20045;-70
2022/03/27 04:32:52;;;;;;;7.82;3.28;;;3.80;99.90;;;;;;5070327;28;20076;-70
2022/03/27 04:35:19;;;;;;;6.70;3.00;;;3.90;99.90;;;;;;5072487;28;20075;-70
2022/03/27 04:37:47;;;;;;;5.28;3.00;;;3.80;99.90;;;;;;5070914;28;20044;-70
2022/03/27 04:40:15;;;;;;;3.83;2.30;;;3.80;99.90;;;;;;5071010;28;20505;-70
2022/03/27 04:42:42;;;;;;;7.82;2.72;;;3.80;99.90;;;;;;5072209;28;20048;-70
2022/03/27 04:45:10;;;;;;;5.07;2.67;;;3.70;99.90;;;;;;5071898;28;20048;-71
2022/03/27 04:47:39;;;;;;;5.22;2.83;;;3.70;99.90;;;;;;5070876;28;20047;-70
2022/03/27 04:50:08;;;;;;;6.72;2.67;;;3.70;99.90;;;;;;5067858;28;20068;-70
2022/03/27 04:52:35;;;;;;;7.53;2.00;;;3.60;99.90;;;;;;5050370;28;20048;-71
2022/03/27 04:55:02;;;;;;;6.80;2.63;;;3.60;99.90;;;;;;5051337;28;20060;-70
2022/03/27 04:57:33;;;;;;;5.57;2.25;;;3.50;99.90;;;;;;5052049;28;20512;-70
2022/03/27 05:00:00;;;;;;;3.80;2.17;;;3.50;99.90;;;;;;5052093;28;20045;-70
2022/03/27 05:02:28;;;;;;;2.97;1.58;;;3.50;99.90;;;;;;5055923;28;20075;-70
2022/03/27 05:04:56;;;;;;;3.67;1.70;;;3.40;99.90;;;;;;5070924;28;20049;-70
2022/03/27 05:07:23;;;;;;;4.25;1.98;;;3.40;99.90;;;;;;5075286;28;20052;-71
2022/03/27 05:09:50;;;;;;;5.38;2.00;;;3.30;99.90;;;;;;5076088;28;20094;-70
2022/03/27 05:12:16;;;;;;;2.90;1.75;;;3.30;99.90;;;;;;5074718;28;20061;-70
2022/03/27 05:14:43;;;;;;;5.30;2.20;;;3.30;99.90;;;;;;5075336;28;20052;-70
2022/03/27 05:17:10;;;;;;;6.85;2.72;;;3.30;99.90;;;;;;5074414;28;20044;-71
2022/03/27 05:19:37;;;;;;;9.10;2.38;;;3.20;99.90;;;;;;5074023;28;20102;-70
2022/03/27 05:22:07;;;;;;;9.32;2.25;;;3.20;99.90;;;;;;5075436;28;20044;-71
2022/03/27 05:24:34;;;;;;;6.00;2.67;;;3.10;99.90;;;;;;5074639;28;20480;-70
2022/03/27 05:27:00;;;;;;;4.15;2.00;;;3.10;99.90;;;;;;5070317;28;20118;-70
2022/03/27 05:29:27;;;;;;;5.18;2.20;;;3.10;99.90;;;;;;5055614;28;20056;-70
2022/03/27 05:31:55;;;;;;;5.32;2.25;;;3.10;99.90;;;;;;5054620;28;20056;-70
2022/03/27 05:34:22;;;;;;;3.92;2.10;;;3.10;99.90;;;;;;5055305;28;20128;-71
2022/03/27 05:36:49;;;;;;;9.13;2.40;;;3.20;99.90;;;;;;5054657;28;20052;-70
2022/03/27 05:39:18;;;;;;;7.28;2.33;;;3.20;99.90;;;;;;5055601;28;20051;-70
2022/03/27 05:41:45;;;;;;;8.80;2.40;;;3.30;99.90;;;;;;5064150;28;20048;-70
2022/03/27 05:44:12;;;;;;;13.57;4.03;;;3.40;99.90;;;;;;5068625;28;20056;-70
2022/03/27 05:46:39;;;;;;;12.18;3.28;;;3.50;99.90;;;;;;5064327;28;20485;-70
2022/03/27 05:49:06;;;;;;;5.80;2.65;;;3.70;99.90;;;;;;5065303;28;20058;-71
2022/03/27 05:51:33;;;;;;;9.65;3.45;;;3.70;99.90;;;;;;5065143;28;20099;-71
2022/03/27 05:54:00;;;;;;;11.77;3.97;;;3.80;99.90;;;;;;5063049;28;20061;-70
2022/03/27 05:56:28;;;;;;;10.40;4.07;;;3.80;99.90;;;;;;5066714;28;20052;-70
2022/03/27 05:58:55;;;;;;;10.32;3.58;;;4.00;99.90;;;;;;5068004;28;20056;-70
2022/03/27 06:01:22;;;;;;;13.05;3.80;;;4.00;99.90;;;;;;5070654;28;20664;-70
2022/03/27 06:03:49;;;;;;;24.25;4.10;;;4.10;99.90;;;;;;5069080;28;20048;-70
2022/03/27 06:06:16;;;;;;;16.25;4.07;;;4.20;99.90;;;;;;5066830;28;20049;-70
2022/03/27 06:08:43;;;;;;;17.83;5.85;;;4.50;99.90;;;;;;5064578;28;20052;-70
2022/03/27 06:11:10;;;;;;;18.80;4.13;;;4.60;99.90;;;;;;5062939;28;20126;-71
2022/03/27 06:13:38;;;;;;;14.23;4.93;;;4.60;99.90;;;;;;5069631;28;20099;-70
2022/03/27 06:16:05;;;;;;;14.43;4.80;;;4.60;99.90;;;;;;5062724;28;20061;-70
2022/03/27 06:18:32;;;;;;;20.30;7.43;;;4.70;99.90;;;;;;5063428;28;20049;-71
2022/03/27 06:20:59;;;;;;;21.80;5.63;;;4.80;99.90;;;;;;5066065;28;20041;-71
2022/03/27 06:23:26;;;;;;;22.08;5.47;;;4.90;99.90;;;;;;5064076;28;20048;-71
2022/03/27 06:25:53;;;;;;;26.23;5.47;;;5.10;99.90;;;;;;5066406;28;20047;-70
2022/03/27 06:28:20;;;;;;;20.90;5.00;;;5.20;99.90;;;;;;5088582;28;20052;-70
2022/03/27 06:30:49;;;;;;;20.73;6.05;;;5.50;99.90;;;;;;5086827;28;20109;-70
2022/03/27 06:33:16;;;;;;;21.45;6.28;;;5.80;99.90;;;;;;5084858;28;20504;-71
2022/03/27 06:35:42;;;;;;;31.33;6.47;;;6.10;99.90;;;;;;5084916;28;20141;-71
2022/03/27 06:38:09;;;;;;;32.58;7.53;;;6.40;99.90;;;;;;5081817;28;20052;-70
2022/03/27 06:40:36;;;;;;;28.27;7.20;;;6.60;99.90;;;;;;5067316;28;20049;-70
2022/03/27 06:43:04;;;;;;;37.58;8.15;;;6.80;99.90;;;;;;5091509;28;20114;-70
2022/03/27 06:45:31;;;;;;;34.35;9.73;;;7.00;99.90;;;;;;5067639;28;20499;-71
2022/03/27 06:47:59;;;;;;;34.42;8.60;;;7.10;99.90;;;;;;5069988;28;20048;-71
2022/03/27 06:50:27;;;;;;;43.83;9.48;;;7.20;99.90;;;;;;5070452;28;20041;-71
2022/03/27 06:52:55;;;;;;;32.33;8.32;;;7.40;99.90;;;;;;5067274;28;20109;-70
2022/03/27 06:55:22;;;;;;;38.80;9.38;;;7.50;99.90;;;;;;5083299;28;20069;-70
2022/03/27 06:57:49;;;;;;;39.42;10.07;;;7.70;99.90;;;;;;5066438;28;20048;-71
2022/03/27 07:03:03;;;;;;;33.10;7.95;;;8.20;99.90;;;;;;5068585;28;20061;-71
2022/03/27 07:05:31;;;;;;;42.72;9.68;;;8.60;99.90;;;;;;5086220;28;20459;-71
2022/03/27 07:07:58;;;;;;;34.85;7.80;;;8.90;99.90;;;;;;5067418;28;20051;-70
2022/03/27 07:10:25;;;;;;;41.38;8.80;;;9.00;99.90;;;;;;5086352;28;20549;-71
2022/03/27 07:12:52;;;;;;;29.42;7.45;;;9.20;99.90;;;;;;5067416;28;20040;-70
2022/03/27 07:15:20;;;;;;;42.53;9.98;;;9.30;99.90;;;;;;5067760;28;20052;-71
2022/03/27 07:17:48;;;;;;;25.10;8.30;;;9.30;99.90;;;;;;5068403;28;20055;-71
2022/03/27 07:20:20;;;;;;;32.60;9.70;;;9.40;99.90;;;;;;5066888;28;20127;-71
2022/03/27 07:22:48;;;;;;;31.52;8.90;;;9.50;99.90;;;;;;5065287;28;20083;-71
2022/03/27 07:25:15;;;;;;;30.52;7.60;;;9.80;99.90;;;;;;5084669;28;20048;-71
2022/03/27 07:27:42;;;;;;;34.05;9.20;;;10.30;99.90;;;;;;5082796;28;20078;-71
2022/03/27 07:30:10;;;;;;;33.25;7.90;;;10.90;99.90;;;;;;5085347;28;20098;-71
2022/03/27 07:32:39;;;;;;;30.00;8.45;;;11.30;99.90;;;;;;5084298;28;20051;-71
2022/03/27 07:35:08;;;;;;;36.65;8.50;;;12.20;99.90;;;;;;5084119;28;20076;-72
2022/03/27 07:37:36;;;;;;;33.53;8.70;;;13.00;99.90;;;;;;5066775;28;20048;-71
2022/03/27 07:40:08;;;;;;;33.03;8.57;;;13.60;99.90;;;;;;5084970;28;20044;-71
2022/03/27 07:42:35;;;;;;;31.48;9.00;;;14.00;99.90;;;;;;5068952;28;20048;-71
2022/03/27 07:45:02;;;;;;;33.22;8.45;;;14.60;99.90;;;;;;5069863;28;20057;-71
2022/03/27 07:47:29;;;;;;;22.58;7.13;;;14.80;99.90;;;;;;5085498;28;20563;-71
2022/03/27 07:49:57;;;;;;;22.88;7.07;;;14.90;99.90;;;;;;5089035;28;20044;-71
2022/03/27 07:52:24;;;;;;;28.55;7.85;;;15.00;99.90;;;;;;5064335;28;20060;-72
2022/03/27 07:54:52;;;;;;;24.23;7.47;;;15.20;99.90;;;;;;5064414;28;20349;-72
2022/03/27 07:57:20;;;;;;;35.63;8.63;;;15.60;99.90;;;;;;5066859;28;20094;-71
2022/03/27 07:59:47;;;;;;;29.45;7.43;;;16.20;99.90;;;;;;5071596;28;20063;-72
2022/03/27 08:02:14;;;;;;;25.38;6.50;;;16.70;99.90;;;;;;5070322;28;20044;-71
2022/03/27 08:04:41;;;;;;;27.02;7.97;;;16.60;99.90;;;;;;5072770;28;20404;-71
2022/03/27 08:07:08;;;;;;;24.27;7.00;;;16.90;99.90;;;;;;5085616;28;20438;-71
2022/03/27 08:09:34;;;;;;;25.83;7.10;;;17.10;99.90;;;;;;5066881;28;20052;-71
2022/03/27 08:12:03;;;;;;;21.48;6.57;;;17.90;99.90;;;;;;5071864;28;20141;-72
2022/03/27 08:14:31;;;;;;;25.10;7.13;;;18.40;98.40;;;;;;5085314;28;20048;-71
2022/03/27 08:16:59;;;;;;;23.20;6.80;;;18.70;95.80;;;;;;5066586;28;20062;-72
2022/03/27 08:19:26;;;;;;;28.80;7.50;;;18.70;95.40;;;;;;5085360;28;20472;-73
2022/03/27 08:21:53;;;;;;;28.58;7.28;;;19.30;94.40;;;;;;5064995;28;20048;-73
2022/03/27 08:24:20;;;;;;;28.48;7.38;;;19.80;92.00;;;;;;5067575;28;20132;-73
2022/03/27 08:26:55;;;;;;;22.92;6.70;;;20.20;90.10;;;;;;5082397;28;20418;-73
2022/03/27 08:29:24;;;;;;;18.60;6.30;;;20.60;86.70;;;;;;5063010;28;20122;-72
2022/03/27 08:31:51;;;;;;;24.92;6.63;;;21.00;84.30;;;;;;5070547;28;20106;-73
2022/03/27 08:34:19;;;;;;;21.83;7.13;;;21.00;83.20;;;;;;5084891;28;20550;-74
2022/03/27 08:36:46;;;;;;;24.13;6.53;;;21.00;81.60;;;;;;5065487;28;20068;-73
2022/03/27 08:39:13;;;;;;;21.23;6.60;;;21.20;79.50;;;;;;5089141;28;20458;-73
2022/03/27 08:41:43;;;;;;;22.10;6.70;;;21.00;78.60;;;;;;5067569;28;20117;-73
2022/03/27 08:44:12;;;;;;;18.17;6.43;;;20.20;75.90;;;;;;5087166;28;20131;-73
2022/03/27 08:46:42;;;;;;;22.77;7.03;;;20.40;78.50;;;;;;5067871;28;20056;-73
2022/03/27 08:49:12;;;;;;;20.50;6.25;;;20.00;77.20;;;;;;5067954;28;20066;-73
2022/03/27 08:51:48;;;;;;;21.00;6.82;;;20.10;76.80;;;;;;5083642;28;20544;-73
2022/03/27 08:54:20;;;;;;;16.98;6.03;;;20.60;73.20;;;;;;5065513;28;20070;-73
2022/03/27 08:57:08;;;;;;;20.73;6.35;;;21.00;73.70;;;;;;5085995;28;20044;-73
2022/03/27 08:59:37;;;;;;;22.38;6.90;;;21.60;69.70;;;;;;5071701;28;20047;-73
2022/03/27 09:02:06;;;;;;;23.50;8.07;;;21.70;71.10;;;;;;5063496;28;20106;-73
2022/03/27 09:04:33;;;;;;;17.33;6.30;;;21.80;69.70;;;;;;5064361;28;20049;-73
2022/03/27 09:07:03;;;;;;;21.17;7.07;;;22.10;70.40;;;;;;5083202;28;20105;-73
2022/03/27 09:09:34;;;;;;;20.27;6.43;;;21.90;68.80;;;;;;5064757;28;20514;-73
2022/03/27 09:12:04;;;;;;;20.38;6.35;;;22.50;68.20;;;;;;5083491;28;20059;-74
2022/03/27 09:14:32;;;;;;;14.73;5.78;;;22.70;67.00;;;;;;5068981;28;20377;-73
2022/03/27 09:17:05;;;;;;;18.48;5.65;;;22.70;66.80;;;;;;5067471;28;20052;-73
2022/03/27 09:19:34;;;;;;;23.40;7.00;;;22.80;66.30;;;;;;5066744;28;20450;-73
2022/03/27 09:22:13;;;;;;;19.70;6.78;;;23.00;65.70;;;;;;5083501;28;20052;-73
2022/03/27 09:24:40;;;;;;;15.18;5.40;;;23.00;64.50;;;;;;5068661;28;20058;-72
2022/03/27 09:27:07;;;;;;;17.20;5.35;;;23.50;64.40;;;;;;5081985;28;20070;-72
2022/03/27 09:30:01;;;;;;;17.23;5.85;;;23.40;62.40;;;;;;5068355;28;20488;-73
2022/03/27 09:32:31;;;;;;;18.50;5.85;;;23.10;61.70;;;;;;5066459;28;20400;-72
2022/03/27 09:34:58;;;;;;;;;;;23.20;61.80;;;;;;5065544;28;20521;-72
2022/03/27 09:37:32;;;;;;;18.92;6.45;;;23.30;60.50;;;;;;5085655;28;19920;-72
2022/03/27 09:39:59;;;;;;;19.92;5.97;;;23.40;60.30;;;;;;5084843;28;20066;-72
2022/03/27 09:42:27;;;;;;;19.40;6.68;;;23.20;61.50;;;;;;5085564;28;20109;-72
2022/03/27 09:45:15;;;;;;;19.35;6.25;;;23.30;61.20;;;;;;5066802;28;20056;-72
2022/03/27 09:47:47;;;;;;;17.25;5.93;;;23.10;60.20;;;;;;5085469;28;20074;-72
2022/03/27 09:50:31;;;;;;;15.95;6.55;;;22.90;61.20;;;;;;5070509;28;20044;-73
2022/03/27 09:53:21;;;;;;;19.73;6.88;;;23.30;59.90;;;;;;5073000;28;20056;-73
2022/03/27 09:55:54;;;;;;;20.75;6.18;;;23.20;59.30;;;;;;5071618;28;20051;-73
2022/03/27 09:58:37;;;;;;;21.58;6.47;;;23.50;59.80;;;;;;5088586;28;20441;-73
2022/03/27 10:01:09;;;;;;;20.83;6.93;;;23.60;58.20;;;;;;5066574;28;20090;-73
2022/03/27 10:03:38;;;;;;;16.23;5.85;;;23.60;59.90;;;;;;5069916;28;20055;-73
2022/03/27 10:06:05;;;;;;;21.63;6.63;;;23.60;59.30;;;;;;5088339;28;20079;-74
2022/03/27 10:08:32;;;;;;;14.98;5.72;;;23.70;59.30;;;;;;5088596;28;20828;-72
2022/03/27 10:10:59;;;;;;;19.70;5.90;;;24.20;60.30;;;;;;5087231;28;20044;-73
2022/03/27 10:13:29;;;;;;;19.17;5.72;;;24.00;60.00;;;;;;5067885;28;20500;-73
2022/03/27 10:15:59;;;;;;;20.48;6.40;;;24.40;60.00;;;;;;5068429;28;20131;-73
2022/03/27 10:18:27;;;;;;;22.05;7.40;;;24.90;59.40;;;;;;5086316;28;20048;-74
2022/03/27 10:20:59;;;;;;;16.77;5.05;;;24.80;59.10;;;;;;5073143;28;20048;-74
2022/03/27 10:23:28;;;;;;;18.73;6.07;;;24.50;58.40;;;;;;5087081;28;20044;-73
2022/03/27 10:25:57;;;;;;;19.35;6.00;;;24.20;58.70;;;;;;5089038;28;20419;-73
2022/03/27 10:28:25;;;;;;;20.02;6.43;;;24.20;59.20;;;;;;5067794;28;20049;-74
2022/03/27 10:30:52;;;;;;;18.73;5.60;;;24.40;59.00;;;;;;5068246;28;20117;-73
2022/03/27 10:33:21;;;;;;;19.27;5.85;;;24.60;58.00;;;;;;5084952;28;20097;-72
2022/03/27 10:35:56;;;;;;;18.27;5.70;;;24.80;57.50;;;;;;5081559;28;20045;-73
2022/03/27 10:38:42;;;;;;;19.90;5.55;;;25.00;56.60;;;;;;5061625;28;20510;-73
2022/03/27 10:41:14;;;;;;;18.15;5.68;;;24.70;56.60;;;;;;5075586;28;20453;-71
2022/03/27 10:43:49;;;;;;;14.70;5.88;;;24.60;57.50;;;;;;5070626;28;20491;-71
2022/03/27 10:46:18;;;;;;;14.27;5.05;;;24.70;57.00;;;;;;5057771;28;20056;-71
2022/03/27 10:48:46;;;;;;;15.40;4.88;;;24.90;57.00;;;;;;5071778;28;20052;-72
2022/03/27 10:51:37;;;;;;;13.57;5.10;;;25.10;55.80;;;;;;5082940;28;20055;-72
2022/03/27 10:54:07;;;;;;;18.08;5.03;;;25.20;55.00;;;;;;5075936;28;20048;-73
2022/03/27 10:56:37;;;;;;;16.83;5.75;;;25.10;54.40;;;;;;5067692;28;20057;-73
2022/03/27 10:59:16;;;;;;;18.23;5.18;;;25.30;54.80;;;;;;5073853;28;20056;-72
2022/03/27 11:01:45;;;;;;;14.68;4.88;;;25.30;53.80;;;;;;5092324;28;20063;-72
2022/03/27 11:04:14;;;;;;;15.32;4.53;;;25.30;54.00;;;;;;5087078;28;20098;-72
2022/03/27 11:06:43;;;;;;;17.80;4.97;;;25.40;53.50;;;;;;5062945;28;20125;-73
2022/03/27 11:09:30;;;;;;;19.25;5.47;;;25.70;53.60;;;;;;5061310;28;20052;-72
2022/03/27 11:11:57;;;;;;;15.00;4.75;;;25.50;53.40;;;;;;5075517;28;20040;-73
2022/03/27 11:14:43;;;;;;;15.07;4.00;;;25.80;52.90;;;;;;5065111;28;20500;-73
2022/03/27 11:17:14;;;;;;;12.05;3.80;;;26.10;51.50;;;;;;5085400;28;20101;-73
2022/03/27 11:19:43;;;;;;;13.60;4.53;;;26.00;50.20;;;;;;5084446;28;20656;-72
2022/03/27 11:22:47;;;;;;;13.90;3.67;;;25.40;51.60;;;;;;5066789;28;20390;-73
2022/03/27 11:25:33;;;;;;;12.07;4.22;;;25.30;50.30;;;;;;5063660;28;20064;-72
2022/03/27 11:28:10;;;;;;;13.45;3.95;;;24.80;50.50;;;;;;5073180;28;20056;-72
2022/03/27 11:30:41;;;;;;;14.90;3.80;;;24.80;51.30;;;;;;5062901;28;20052;-72
2022/03/27 11:33:15;;;;;;;12.13;3.97;;;24.90;51.10;;;;;;5054925;28;20056;-72
2022/03/27 11:35:44;;;;;;;15.88;4.57;;;25.00;51.00;;;;;;5059091;28;20052;-72
2022/03/27 11:38:22;;;;;;;10.80;3.63;;;25.40;51.40;;;;;;5064402;28;20079;-72
2022/03/27 11:40:51;;;;;;;12.38;4.35;;;26.00;49.40;;;;;;5089455;28;20043;-73
2022/03/27 11:43:33;;;;;;;11.05;4.03;;;26.20;50.00;;;;;;5079891;28;20086;-72
2022/03/27 11:46:01;;;;;;;13.32;4.32;;;26.00;48.90;;;;;;5075509;28;20162;-73
2022/03/27 11:48:28;;;;;;;11.57;4.70;;;25.90;50.40;;;;;;5092872;28;20094;-72
2022/03/27 11:50:56;;;;;;;12.20;3.88;;;25.70;50.30;;;;;;5071707;28;20133;-72
2022/03/27 11:53:31;;;;;;;10.98;3.55;;;26.10;49.30;;;;;;5111286;28;20109;-72
2022/03/27 11:56:07;;;;;;;12.07;3.88;;;26.20;49.40;;;;;;5098652;28;20052;-73
2022/03/27 11:58:35;;;;;;;9.45;3.10;;;26.00;49.40;;;;;;5098596;28;20100;-74
2022/03/27 12:01:08;;;;;;;11.43;3.42;;;25.90;48.70;;;;;;5083408;28;20044;-74
2022/03/27 12:03:36;;;;;;;11.07;3.80;;;25.80;48.50;;;;;;5075769;28;20052;-74
2022/03/27 12:06:08;;;;;;;9.68;3.72;;;25.40;49.30;;;;;;5075304;28;20044;-73
2022/03/27 12:08:36;;;;;;;10.70;4.00;;;25.30;49.80;;;;;;5078156;28;20108;-73
2022/03/27 12:11:06;;;;;;;12.65;3.80;;;25.40;49.80;;;;;;5112839;28;20070;-74
2022/03/27 12:13:38;;;;;;;11.70;3.15;;;25.50;50.20;;;;;;5094871;28;20059;-73
2022/03/27 12:16:05;;;;;;;13.07;3.38;;;26.20;50.10;;;;;;5094419;28;20081;-74
2022/03/27 12:18:34;;;;;;;10.15;3.25;;;26.90;50.20;;;;;;5113412;28;20047;-73
2022/03/27 12:21:03;;;;;;;8.50;3.30;;;27.60;49.50;;;;;;5076315;28;20048;-74
2022/03/27 12:23:32;;;;;;;10.77;3.38;;;27.60;47.80;;;;;;5092127;28;20290;-74
2022/03/27 12:26:02;;;;;;;12.02;3.70;;;27.60;47.50;;;;;;5092358;28;20048;-74
2022/03/27 12:31:23;;;;;;;11.35;3.88;;;27.10;48.00;;;;;;5093349;28;20127;-74
2022/03/27 12:33:51;;;;;;;9.55;3.30;;;27.90;47.60;;;;;;5075723;28;20052;-75
2022/03/27 12:36:18;;;;;;;12.40;3.40;;;28.20;47.80;;;;;;5093856;28;20454;-73
2022/03/27 12:38:46;;;;;;;12.20;3.10;;;28.30;46.90;;;;;;5089249;28;20461;-73
2022/03/27 12:41:13;;;;;;;11.70;3.42;;;28.10;46.90;;;;;;5072309;28;20056;-73
2022/03/27 12:43:56;;;;;;;8.77;3.03;;;28.10;46.80;;;;;;5077531;28;20059;-73
2022/03/27 12:46:25;;;;;;;8.82;2.75;;;27.30;45.10;;;;;;5092836;28;20055;-74
2022/03/27 12:48:59;;;;;;;6.90;2.47;;;26.90;45.80;;;;;;5074001;28;20048;-73
2022/03/27 12:51:26;;;;;;;8.63;3.08;;;27.00;46.60;;;;;;5072339;28;20043;-73
2022/03/27 12:54:07;;;;;;;10.05;3.13;;;27.20;46.90;;;;;;5073477;28;20056;-74
2022/03/27 12:56:34;;;;;;;11.82;3.63;;;27.50;47.00;;;;;;5083063;28;20405;-74
2022/03/27 12:59:20;;;;;;;11.05;3.78;;;26.50;48.30;;;;;;5071867;28;20072;-74
2022/03/27 13:01:47;;;;;;;11.05;3.38;;;26.00;48.20;;;;;;5062262;28;20040;-74
2022/03/27 13:04:14;;;;;;;13.85;3.80;;;25.80;48.90;;;;;;5072475;28;20048;-74
2022/03/27 13:06:43;;;;;;;8.20;3.28;;;26.20;49.40;;;;;;5088014;28;20048;-74